sensor_id;sensor_type;location;lat;lon;timestamp;temperature;humidity
59961;DHT22;55902;-37.980;-63.602;2023-04-19T00:01:30;15.70;80.50
59961;DHT22;55902;-37.980;-63.602;2023-04-19T00:04:00;15.70;79.80
59961;DHT22;55902;-37.980;-63.602;2023-04-19T00:06:28;15.70;80.50
59961;DHT22;55902;-37.980;-63.602;2023-04-19T00:08:56;15.70;80.50
59961;DHT22;55902;-37.980;-63.602;2023-04-19T00:11:23;15.70;80.60
59961;DHT22;55902;-37.980;-63.602;2023-04-19T00:13:50;15.70;80.80
59961;DHT22;55902;-37.980;-63.602;2023-04-19T00:16:17;15.70;80.50
59961;DHT22;55902;-37.980;-63.602;2023-04-19T00:18:44;15.70;80.60
59961;DHT22;55902;-37.980;-63.602;2023-04-19T00:21:11;15.70;80.40
59961;DHT22;55902;-37.980;-63.602;2023-04-19T00:23:38;15.70;80.70
59961;DHT22;55902;-37.980;-63.602;2023-04-19T00:26:05;15.70;80.10
59961;DHT22;55902;-37.980;-63.602;2023-04-19T00:28:33;15.70;80.80
59961;DHT22;55902;-37.980;-63.602;2023-04-19T00:31:00;15.70;80.30
59961;DHT22;55902;-37.980;-63.602;2023-04-19T00:33:27;15.70;80.70
59961;DHT22;55902;-37.980;-63.602;2023-04-19T00:35:54;15.60;81.30
59961;DHT22;55902;-37.980;-63.602;2023-04-19T00:38:21;15.60;81.30
59961;DHT22;55902;-37.980;-63.602;2023-04-19T00:40:48;15.60;82.60
59961;DHT22;55902;-37.980;-63.602;2023-04-19T00:43:18;15.60;81.50
59961;DHT22;55902;-37.980;-63.602;2023-04-19T00:45:47;15.60;81.00
59961;DHT22;55902;-37.980;-63.602;2023-04-19T00:48:15;15.60;81.60
59961;DHT22;55902;-37.980;-63.602;2023-04-19T00:50:43;15.60;82.10
59961;DHT22;55902;-37.980;-63.602;2023-04-19T00:53:10;15.60;83.80
59961;DHT22;55902;-37.980;-63.602;2023-04-19T00:55:40;15.50;83.90
59961;DHT22;55902;-37.980;-63.602;2023-04-19T00:58:08;15.50;83.50
59961;DHT22;55902;-37.980;-63.602;2023-04-19T01:00:36;15.50;83.90
59961;DHT22;55902;-37.980;-63.602;2023-04-19T01:03:03;15.50;82.90
59961;DHT22;55902;-37.980;-63.602;2023-04-19T01:05:30;15.50;82.30
59961;DHT22;55902;-37.980;-63.602;2023-04-19T01:07:57;15.50;81.80
59961;DHT22;55902;-37.980;-63.602;2023-04-19T01:10:25;15.50;83.10
59961;DHT22;55902;-37.980;-63.602;2023-04-19T01:12:51;15.50;82.80
59961;DHT22;55902;-37.980;-63.602;2023-04-19T01:15:19;15.50;82.40
59961;DHT22;55902;-37.980;-63.602;2023-04-19T01:17:46;15.50;82.40
59961;DHT22;55902;-37.980;-63.602;2023-04-19T01:20:13;15.50;84.10
59961;DHT22;55902;-37.980;-63.602;2023-04-19T01:22:40;15.50;83.00
59961;DHT22;55902;-37.980;-63.602;2023-04-19T01:25:07;15.50;83.20
59961;DHT22;55902;-37.980;-63.602;2023-04-19T01:27:35;15.50;82.20
59961;DHT22;55902;-37.980;-63.602;2023-04-19T01:30:02;15.50;81.80
59961;DHT22;55902;-37.980;-63.602;2023-04-19T01:32:29;15.50;81.80
59961;DHT22;55902;-37.980;-63.602;2023-04-19T01:34:59;15.50;82.00
59961;DHT22;55902;-37.980;-63.602;2023-04-19T01:37:26;15.50;82.50
59961;DHT22;55902;-37.980;-63.602;2023-04-19T01:39:53;15.50;83.60
59961;DHT22;55902;-37.980;-63.602;2023-04-19T01:42:21;15.40;83.10
59961;DHT22;55902;-37.980;-63.602;2023-04-19T01:44:48;15.50;82.80
59961;DHT22;55902;-37.980;-63.602;2023-04-19T01:47:15;15.40;84.10
59961;DHT22;55902;-37.980;-63.602;2023-04-19T01:49:42;15.40;85.10
59961;DHT22;55902;-37.980;-63.602;2023-04-19T01:52:09;15.40;83.90
59961;DHT22;55902;-37.980;-63.602;2023-04-19T01:54:36;15.40;84.30
59961;DHT22;55902;-37.980;-63.602;2023-04-19T01:57:02;15.40;83.90
59961;DHT22;55902;-37.980;-63.602;2023-04-19T01:59:29;15.40;83.70
59961;DHT22;55902;-37.980;-63.602;2023-04-19T02:01:56;15.40;85.00
59961;DHT22;55902;-37.980;-63.602;2023-04-19T02:04:24;15.30;85.10
59961;DHT22;55902;-37.980;-63.602;2023-04-19T02:06:51;15.30;84.60
59961;DHT22;55902;-37.980;-63.602;2023-04-19T02:09:18;15.20;85.90
59961;DHT22;55902;-37.980;-63.602;2023-04-19T02:11:45;15.20;86.60
59961;DHT22;55902;-37.980;-63.602;2023-04-19T02:14:12;15.20;86.00
59961;DHT22;55902;-37.980;-63.602;2023-04-19T02:16:39;15.10;86.00
59961;DHT22;55902;-37.980;-63.602;2023-04-19T02:19:06;15.10;86.10
59961;DHT22;55902;-37.980;-63.602;2023-04-19T02:21:33;15.10;85.20
59961;DHT22;55902;-37.980;-63.602;2023-04-19T02:24:00;15.10;85.00
59961;DHT22;55902;-37.980;-63.602;2023-04-19T02:26:27;15.10;86.40
59961;DHT22;55902;-37.980;-63.602;2023-04-19T02:28:54;15.10;86.10
59961;DHT22;55902;-37.980;-63.602;2023-04-19T02:31:21;15.10;86.40
59961;DHT22;55902;-37.980;-63.602;2023-04-19T02:33:48;15.10;87.10
59961;DHT22;55902;-37.980;-63.602;2023-04-19T02:36:15;15.00;86.80
59961;DHT22;55902;-37.980;-63.602;2023-04-19T02:38:42;15.00;86.60
59961;DHT22;55902;-37.980;-63.602;2023-04-19T02:41:09;15.00;87.80
59961;DHT22;55902;-37.980;-63.602;2023-04-19T02:43:36;15.00;87.70
59961;DHT22;55902;-37.980;-63.602;2023-04-19T02:46:03;15.00;86.20
59961;DHT22;55902;-37.980;-63.602;2023-04-19T02:48:30;15.00;87.60
59961;DHT22;55902;-37.980;-63.602;2023-04-19T02:50:57;15.00;88.10
59961;DHT22;55902;-37.980;-63.602;2023-04-19T02:53:24;15.00;88.40
59961;DHT22;55902;-37.980;-63.602;2023-04-19T02:55:54;14.90;87.80
59961;DHT22;55902;-37.980;-63.602;2023-04-19T02:58:21;14.90;88.00
59961;DHT22;55902;-37.980;-63.602;2023-04-19T03:00:48;14.90;88.60
59961;DHT22;55902;-37.980;-63.602;2023-04-19T03:03:15;14.90;88.70
59961;DHT22;55902;-37.980;-63.602;2023-04-19T03:05:42;14.90;88.60
59961;DHT22;55902;-37.980;-63.602;2023-04-19T03:08:09;14.90;89.60
59961;DHT22;55902;-37.980;-63.602;2023-04-19T03:10:37;14.90;88.80
59961;DHT22;55902;-37.980;-63.602;2023-04-19T03:13:04;14.80;89.30
59961;DHT22;55902;-37.980;-63.602;2023-04-19T03:15:31;14.90;89.30
59961;DHT22;55902;-37.980;-63.602;2023-04-19T03:17:58;14.90;88.40
59961;DHT22;55902;-37.980;-63.602;2023-04-19T03:20:25;14.80;89.10
59961;DHT22;55902;-37.980;-63.602;2023-04-19T03:22:52;14.80;89.70
59961;DHT22;55902;-37.980;-63.602;2023-04-19T03:25:19;14.70;90.10
59961;DHT22;55902;-37.980;-63.602;2023-04-19T03:27:46;14.70;89.20
59961;DHT22;55902;-37.980;-63.602;2023-04-19T03:30:13;14.60;89.40
59961;DHT22;55902;-37.980;-63.602;2023-04-19T03:32:40;14.50;90.30
59961;DHT22;55902;-37.980;-63.602;2023-04-19T03:35:07;14.40;90.20
59961;DHT22;55902;-37.980;-63.602;2023-04-19T03:37:34;14.30;89.70
59961;DHT22;55902;-37.980;-63.602;2023-04-19T03:40:01;14.20;90.00
59961;DHT22;55902;-37.980;-63.602;2023-04-19T03:42:29;14.20;89.60
59961;DHT22;55902;-37.980;-63.602;2023-04-19T03:44:56;14.10;89.80
59961;DHT22;55902;-37.980;-63.602;2023-04-19T03:47:23;14.00;90.60
59961;DHT22;55902;-37.980;-63.602;2023-04-19T03:49:50;13.90;90.30
59961;DHT22;55902;-37.980;-63.602;2023-04-19T03:52:17;13.90;90.40
59961;DHT22;55902;-37.980;-63.602;2023-04-19T03:54:44;13.80;90.60
59961;DHT22;55902;-37.980;-63.602;2023-04-19T03:57:11;13.80;90.60
59961;DHT22;55902;-37.980;-63.602;2023-04-19T03:59:38;13.70;90.80
59961;DHT22;55902;-37.980;-63.602;2023-04-19T04:02:06;13.70;90.70
59961;DHT22;55902;-37.980;-63.602;2023-04-19T04:04:33;13.60;90.90
59961;DHT22;55902;-37.980;-63.602;2023-04-19T04:07:03;13.50;90.80
59961;DHT22;55902;-37.980;-63.602;2023-04-19T04:09:30;13.40;90.80
59961;DHT22;55902;-37.980;-63.602;2023-04-19T04:11:57;13.40;91.20
59961;DHT22;55902;-37.980;-63.602;2023-04-19T04:14:24;13.30;91.60
59961;DHT22;55902;-37.980;-63.602;2023-04-19T04:16:51;13.20;91.70
59961;DHT22;55902;-37.980;-63.602;2023-04-19T04:19:18;13.20;91.60
59961;DHT22;55902;-37.980;-63.602;2023-04-19T04:21:47;13.20;91.80
59961;DHT22;55902;-37.980;-63.602;2023-04-19T04:24:14;13.10;92.20
59961;DHT22;55902;-37.980;-63.602;2023-04-19T04:26:43;13.20;92.20
59961;DHT22;55902;-37.980;-63.602;2023-04-19T04:29:10;13.20;92.70
59961;DHT22;55902;-37.980;-63.602;2023-04-19T04:31:36;13.20;92.40
59961;DHT22;55902;-37.980;-63.602;2023-04-19T04:34:03;13.20;91.60
59961;DHT22;55902;-37.980;-63.602;2023-04-19T04:36:31;13.20;92.10
59961;DHT22;55902;-37.980;-63.602;2023-04-19T04:38:58;13.30;92.10
59961;DHT22;55902;-37.980;-63.602;2023-04-19T04:41:27;13.20;92.40
59961;DHT22;55902;-37.980;-63.602;2023-04-19T04:43:57;13.30;92.60
59961;DHT22;55902;-37.980;-63.602;2023-04-19T04:46:26;13.30;92.80
59961;DHT22;55902;-37.980;-63.602;2023-04-19T04:48:53;13.30;93.00
59961;DHT22;55902;-37.980;-63.602;2023-04-19T04:51:19;13.20;92.90
59961;DHT22;55902;-37.980;-63.602;2023-04-19T04:53:46;13.20;92.90
59961;DHT22;55902;-37.980;-63.602;2023-04-19T04:56:13;13.10;92.90
59961;DHT22;55902;-37.980;-63.602;2023-04-19T04:58:40;13.10;92.90
59961;DHT22;55902;-37.980;-63.602;2023-04-19T05:01:07;13.10;92.80
59961;DHT22;55902;-37.980;-63.602;2023-04-19T05:03:34;13.00;93.30
59961;DHT22;55902;-37.980;-63.602;2023-04-19T05:06:01;13.00;92.80
59961;DHT22;55902;-37.980;-63.602;2023-04-19T05:08:28;13.10;92.70
59961;DHT22;55902;-37.980;-63.602;2023-04-19T05:10:55;13.10;92.90
59961;DHT22;55902;-37.980;-63.602;2023-04-19T05:13:22;13.10;92.80
59961;DHT22;55902;-37.980;-63.602;2023-04-19T05:15:49;13.20;92.50
59961;DHT22;55902;-37.980;-63.602;2023-04-19T05:18:15;13.10;92.50
59961;DHT22;55902;-37.980;-63.602;2023-04-19T05:20:42;13.10;92.40
59961;DHT22;55902;-37.980;-63.602;2023-04-19T05:23:09;13.20;92.70
59961;DHT22;55902;-37.980;-63.602;2023-04-19T05:25:36;13.20;92.10
59961;DHT22;55902;-37.980;-63.602;2023-04-19T05:28:06;13.20;92.40
59961;DHT22;55902;-37.980;-63.602;2023-04-19T05:30:33;13.30;92.00
59961;DHT22;55902;-37.980;-63.602;2023-04-19T05:33:00;13.30;91.90
59961;DHT22;55902;-37.980;-63.602;2023-04-19T05:35:27;13.30;92.20
59961;DHT22;55902;-37.980;-63.602;2023-04-19T05:37:54;13.40;91.80
59961;DHT22;55902;-37.980;-63.602;2023-04-19T05:40:21;13.40;91.80
59961;DHT22;55902;-37.980;-63.602;2023-04-19T05:42:51;13.40;91.60
59961;DHT22;55902;-37.980;-63.602;2023-04-19T05:45:18;13.50;91.60
59961;DHT22;55902;-37.980;-63.602;2023-04-19T05:47:45;13.50;91.40
59961;DHT22;55902;-37.980;-63.602;2023-04-19T05:50:12;13.60;91.20
59961;DHT22;55902;-37.980;-63.602;2023-04-19T05:52:43;13.70;90.90
59961;DHT22;55902;-37.980;-63.602;2023-04-19T05:55:09;13.70;90.80
59961;DHT22;55902;-37.980;-63.602;2023-04-19T05:57:36;13.80;90.70
59961;DHT22;55902;-37.980;-63.602;2023-04-19T06:00:04;13.80;90.60
59961;DHT22;55902;-37.980;-63.602;2023-04-19T06:02:31;13.80;90.60
59961;DHT22;55902;-37.980;-63.602;2023-04-19T06:04:58;13.80;90.70
59961;DHT22;55902;-37.980;-63.602;2023-04-19T06:07:25;13.90;90.60
59961;DHT22;55902;-37.980;-63.602;2023-04-19T06:09:52;13.90;90.50
59961;DHT22;55902;-37.980;-63.602;2023-04-19T06:12:18;14.00;90.50
59961;DHT22;55902;-37.980;-63.602;2023-04-19T06:14:46;14.00;90.30
59961;DHT22;55902;-37.980;-63.602;2023-04-19T06:17:13;14.00;90.30
59961;DHT22;55902;-37.980;-63.602;2023-04-19T06:19:42;14.10;90.10
59961;DHT22;55902;-37.980;-63.602;2023-04-19T06:22:09;14.10;90.40
59961;DHT22;55902;-37.980;-63.602;2023-04-19T06:24:36;14.10;90.30
59961;DHT22;55902;-37.980;-63.602;2023-04-19T06:27:03;14.20;89.90
59961;DHT22;55902;-37.980;-63.602;2023-04-19T06:39:35;14.40;89.40
59961;DHT22;55902;-37.980;-63.602;2023-04-19T06:42:02;14.50;89.20
59961;DHT22;55902;-37.980;-63.602;2023-04-19T06:44:30;14.50;89.40
59961;DHT22;55902;-37.980;-63.602;2023-04-19T06:46:57;14.50;89.00
59961;DHT22;55902;-37.980;-63.602;2023-04-19T06:49:24;14.60;89.20
59961;DHT22;55902;-37.980;-63.602;2023-04-19T06:51:51;14.60;89.00
59961;DHT22;55902;-37.980;-63.602;2023-04-19T06:54:18;14.60;89.10
59961;DHT22;55902;-37.980;-63.602;2023-04-19T06:56:47;14.60;89.10
59961;DHT22;55902;-37.980;-63.602;2023-04-19T06:59:18;14.60;88.90
59961;DHT22;55902;-37.980;-63.602;2023-04-19T07:01:46;14.70;88.80
59961;DHT22;55902;-37.980;-63.602;2023-04-19T07:04:13;14.60;89.00
59961;DHT22;55902;-37.980;-63.602;2023-04-19T07:06:41;14.50;88.70
59961;DHT22;55902;-37.980;-63.602;2023-04-19T07:09:07;14.50;89.00
59961;DHT22;55902;-37.980;-63.602;2023-04-19T07:11:34;14.50;88.90
59961;DHT22;55902;-37.980;-63.602;2023-04-19T07:14:01;14.50;89.00
59961;DHT22;55902;-37.980;-63.602;2023-04-19T07:16:28;14.50;88.80
59961;DHT22;55902;-37.980;-63.602;2023-04-19T07:18:55;14.50;89.50
59961;DHT22;55902;-37.980;-63.602;2023-04-19T07:21:23;14.40;88.60
59961;DHT22;55902;-37.980;-63.602;2023-04-19T07:23:58;14.40;88.60
59961;DHT22;55902;-37.980;-63.602;2023-04-19T07:26:25;14.40;88.50
59961;DHT22;55902;-37.980;-63.602;2023-04-19T07:28:52;14.40;88.60
59961;DHT22;55902;-37.980;-63.602;2023-04-19T07:31:19;14.30;88.20
59961;DHT22;55902;-37.980;-63.602;2023-04-19T07:33:46;14.30;88.20
59961;DHT22;55902;-37.980;-63.602;2023-04-19T07:36:13;14.30;88.20
59961;DHT22;55902;-37.980;-63.602;2023-04-19T07:38:40;14.20;88.00
59961;DHT22;55902;-37.980;-63.602;2023-04-19T07:41:07;14.20;88.50
59961;DHT22;55902;-37.980;-63.602;2023-04-19T07:43:35;14.10;88.30
59961;DHT22;55902;-37.980;-63.602;2023-04-19T07:46:07;14.20;88.00
59961;DHT22;55902;-37.980;-63.602;2023-04-19T07:48:35;14.10;88.00
59961;DHT22;55902;-37.980;-63.602;2023-04-19T07:51:10;14.10;87.90
59961;DHT22;55902;-37.980;-63.602;2023-04-19T07:53:37;14.10;87.80
59961;DHT22;55902;-37.980;-63.602;2023-04-19T07:56:09;14.10;87.70
59961;DHT22;55902;-37.980;-63.602;2023-04-19T07:58:37;14.10;88.10
59961;DHT22;55902;-37.980;-63.602;2023-04-19T08:20:54;14.10;88.30
59961;DHT22;55902;-37.980;-63.602;2023-04-19T08:23:22;14.00;88.00
59961;DHT22;55902;-37.980;-63.602;2023-04-19T08:25:48;14.00;88.70
59961;DHT22;55902;-37.980;-63.602;2023-04-19T08:28:16;14.00;88.40
59961;DHT22;55902;-37.980;-63.602;2023-04-19T08:30:46;13.90;88.60
59961;DHT22;55902;-37.980;-63.602;2023-04-19T08:33:14;13.90;89.20
59961;DHT22;55902;-37.980;-63.602;2023-04-19T08:35:41;13.80;89.30
59961;DHT22;55902;-37.980;-63.602;2023-04-19T08:38:08;13.80;89.00
59961;DHT22;55902;-37.980;-63.602;2023-04-19T08:40:59;13.70;90.00
59961;DHT22;55902;-37.980;-63.602;2023-04-19T08:43:25;13.70;90.10
59961;DHT22;55902;-37.980;-63.602;2023-04-19T08:45:58;13.60;89.50
59961;DHT22;55902;-37.980;-63.602;2023-04-19T08:48:26;13.60;89.90
59961;DHT22;55902;-37.980;-63.602;2023-04-19T08:50:57;13.50;90.00
59961;DHT22;55902;-37.980;-63.602;2023-04-19T08:53:27;13.60;89.90
59961;DHT22;55902;-37.980;-63.602;2023-04-19T08:55:55;13.50;90.00
59961;DHT22;55902;-37.980;-63.602;2023-04-19T08:58:25;13.50;90.10
59961;DHT22;55902;-37.980;-63.602;2023-04-19T09:00:58;13.40;90.00
59961;DHT22;55902;-37.980;-63.602;2023-04-19T09:03:25;13.50;89.70
59961;DHT22;55902;-37.980;-63.602;2023-04-19T09:05:53;13.50;90.20
59961;DHT22;55902;-37.980;-63.602;2023-04-19T09:08:25;13.50;89.90
59961;DHT22;55902;-37.980;-63.602;2023-04-19T09:11:13;13.50;90.30
59961;DHT22;55902;-37.980;-63.602;2023-04-19T09:13:40;13.50;90.20
59961;DHT22;55902;-37.980;-63.602;2023-04-19T09:16:29;13.50;89.90
59961;DHT22;55902;-37.980;-63.602;2023-04-19T09:18:57;13.40;90.00
59961;DHT22;55902;-37.980;-63.602;2023-04-19T09:21:28;13.40;90.10
59961;DHT22;55902;-37.980;-63.602;2023-04-19T09:23:56;13.30;90.10
59961;DHT22;55902;-37.980;-63.602;2023-04-19T09:26:23;13.30;90.20
59961;DHT22;55902;-37.980;-63.602;2023-04-19T09:29:07;13.30;90.30
59961;DHT22;55902;-37.980;-63.602;2023-04-19T09:31:36;13.30;90.80
59961;DHT22;55902;-37.980;-63.602;2023-04-19T09:34:17;13.20;90.60
59961;DHT22;55902;-37.980;-63.602;2023-04-19T09:36:44;13.20;90.80
59961;DHT22;55902;-37.980;-63.602;2023-04-19T09:39:11;13.20;90.40
59961;DHT22;55902;-37.980;-63.602;2023-04-19T09:41:52;13.10;90.50
59961;DHT22;55902;-37.980;-63.602;2023-04-19T09:44:19;13.10;90.70
59961;DHT22;55902;-37.980;-63.602;2023-04-19T09:46:47;13.10;90.70
59961;DHT22;55902;-37.980;-63.602;2023-04-19T09:49:14;13.10;90.60
59961;DHT22;55902;-37.980;-63.602;2023-04-19T09:51:55;13.10;91.00
59961;DHT22;55902;-37.980;-63.602;2023-04-19T09:54:23;13.20;90.90
59961;DHT22;55902;-37.980;-63.602;2023-04-19T09:56:51;13.20;90.90
59961;DHT22;55902;-37.980;-63.602;2023-04-19T09:59:18;13.20;91.00
59961;DHT22;55902;-37.980;-63.602;2023-04-19T10:01:47;13.30;90.90
59961;DHT22;55902;-37.980;-63.602;2023-04-19T10:04:15;13.30;91.00
59961;DHT22;55902;-37.980;-63.602;2023-04-19T10:06:51;13.40;91.30
59961;DHT22;55902;-37.980;-63.602;2023-04-19T10:09:19;13.50;91.00
59961;DHT22;55902;-37.980;-63.602;2023-04-19T10:11:51;13.50;91.20
59961;DHT22;55902;-37.980;-63.602;2023-04-19T10:14:23;13.60;91.00
59961;DHT22;55902;-37.980;-63.602;2023-04-19T10:16:50;13.70;91.20
59961;DHT22;55902;-37.980;-63.602;2023-04-19T10:19:19;13.80;91.10
59961;DHT22;55902;-37.980;-63.602;2023-04-19T10:21:48;13.80;91.10
59961;DHT22;55902;-37.980;-63.602;2023-04-19T10:24:17;13.90;91.00
59961;DHT22;55902;-37.980;-63.602;2023-04-19T10:32:27;14.00;90.90
59961;DHT22;55902;-37.980;-63.602;2023-04-19T10:35:17;14.10;91.00
59961;DHT22;55902;-37.980;-63.602;2023-04-19T10:38:09;14.10;91.20
59961;DHT22;55902;-37.980;-63.602;2023-04-19T10:40:57;14.20;91.10
59961;DHT22;55902;-37.980;-63.602;2023-04-19T10:43:30;14.20;91.20
59961;DHT22;55902;-37.980;-63.602;2023-04-19T10:46:06;14.20;90.90
59961;DHT22;55902;-37.980;-63.602;2023-04-19T10:48:39;14.20;91.00
59961;DHT22;55902;-37.980;-63.602;2023-04-19T10:51:14;14.30;90.80
59961;DHT22;55902;-37.980;-63.602;2023-04-19T10:53:51;14.30;90.80
59961;DHT22;55902;-37.980;-63.602;2023-04-19T11:01:57;14.40;90.90
59961;DHT22;55902;-37.980;-63.602;2023-04-19T11:07:04;14.40;90.60
59961;DHT22;55902;-37.980;-63.602;2023-04-19T11:09:39;14.50;90.90
59961;DHT22;55902;-37.980;-63.602;2023-04-19T11:12:11;14.50;90.80
59961;DHT22;55902;-37.980;-63.602;2023-04-19T11:14:53;14.50;90.80
59961;DHT22;55902;-37.980;-63.602;2023-04-19T11:17:29;14.50;90.90
59961;DHT22;55902;-37.980;-63.602;2023-04-19T11:20:02;14.60;90.80
59961;DHT22;55902;-37.980;-63.602;2023-04-19T11:27:42;14.70;90.90
59961;DHT22;55902;-37.980;-63.602;2023-04-19T11:30:19;14.70;90.60
59961;DHT22;55902;-37.980;-63.602;2023-04-19T11:32:57;14.80;90.70
59961;DHT22;55902;-37.980;-63.602;2023-04-19T11:35:27;14.80;90.90
59961;DHT22;55902;-37.980;-63.602;2023-04-19T11:37:57;14.90;91.40
59961;DHT22;55902;-37.980;-63.602;2023-04-19T11:40:45;14.90;91.00
59961;DHT22;55902;-37.980;-63.602;2023-04-19T11:43:15;15.00;90.90
59961;DHT22;55902;-37.980;-63.602;2023-04-19T11:45:46;15.00;90.80
59961;DHT22;55902;-37.980;-63.602;2023-04-19T11:48:15;15.10;91.00
59961;DHT22;55902;-37.980;-63.602;2023-04-19T11:50:44;15.00;91.30
59961;DHT22;55902;-37.980;-63.602;2023-04-19T11:53:22;14.90;91.50
59961;DHT22;55902;-37.980;-63.602;2023-04-19T11:55:51;14.80;91.30
59961;DHT22;55902;-37.980;-63.602;2023-04-19T11:58:45;14.90;91.40
59961;DHT22;55902;-37.980;-63.602;2023-04-19T12:01:20;15.30;91.70
59961;DHT22;55902;-37.980;-63.602;2023-04-19T12:03:50;16.10;91.40
59961;DHT22;55902;-37.980;-63.602;2023-04-19T12:06:25;16.80;91.00
59961;DHT22;55902;-37.980;-63.602;2023-04-19T12:09:23;17.50;90.50
59961;DHT22;55902;-37.980;-63.602;2023-04-19T12:11:50;18.30;89.70
59961;DHT22;55902;-37.980;-63.602;2023-04-19T12:14:20;18.90;88.60
59961;DHT22;55902;-37.980;-63.602;2023-04-19T12:17:07;19.40;88.20
59961;DHT22;55902;-37.980;-63.602;2023-04-19T12:19:45;20.00;86.40
59961;DHT22;55902;-37.980;-63.602;2023-04-19T12:22:15;20.40;84.70
59961;DHT22;55902;-37.980;-63.602;2023-04-19T12:24:46;20.60;83.70
59961;DHT22;55902;-37.980;-63.602;2023-04-19T12:27:16;20.90;84.10
59961;DHT22;55902;-37.980;-63.602;2023-04-19T12:29:43;21.30;84.30
59961;DHT22;55902;-37.980;-63.602;2023-04-19T12:32:11;21.50;82.10
59961;DHT22;55902;-37.980;-63.602;2023-04-19T12:34:40;21.70;79.60
59961;DHT22;55902;-37.980;-63.602;2023-04-19T12:37:08;21.90;81.80
59961;DHT22;55902;-37.980;-63.602;2023-04-19T12:39:35;22.10;81.80
59961;DHT22;55902;-37.980;-63.602;2023-04-19T12:42:03;22.40;80.70
59961;DHT22;55902;-37.980;-63.602;2023-04-19T12:44:31;22.60;77.80
59961;DHT22;55902;-37.980;-63.602;2023-04-19T12:46:58;22.70;77.30
59961;DHT22;55902;-37.980;-63.602;2023-04-19T12:49:25;22.80;77.70
59961;DHT22;55902;-37.980;-63.602;2023-04-19T12:51:52;23.00;77.50
59961;DHT22;55902;-37.980;-63.602;2023-04-19T12:54:19;23.20;76.40
59961;DHT22;55902;-37.980;-63.602;2023-04-19T12:56:46;23.40;75.30
59961;DHT22;55902;-37.980;-63.602;2023-04-19T12:59:13;23.70;74.50
59961;DHT22;55902;-37.980;-63.602;2023-04-19T13:01:41;23.80;71.20
59961;DHT22;55902;-37.980;-63.602;2023-04-19T13:04:08;23.90;72.70
59961;DHT22;55902;-37.980;-63.602;2023-04-19T13:06:37;23.90;71.80
59961;DHT22;55902;-37.980;-63.602;2023-04-19T13:09:05;24.00;72.00
59961;DHT22;55902;-37.980;-63.602;2023-04-19T13:11:32;24.10;70.60
59961;DHT22;55902;-37.980;-63.602;2023-04-19T13:13:59;24.10;70.00
59961;DHT22;55902;-37.980;-63.602;2023-04-19T13:16:27;24.10;70.70
59961;DHT22;55902;-37.980;-63.602;2023-04-19T13:18:54;24.20;70.80
59961;DHT22;55902;-37.980;-63.602;2023-04-19T13:21:21;24.30;69.40
59961;DHT22;55902;-37.980;-63.602;2023-04-19T13:23:49;24.40;68.50
59961;DHT22;55902;-37.980;-63.602;2023-04-19T13:26:16;24.40;66.10
59961;DHT22;55902;-37.980;-63.602;2023-04-19T13:28:43;24.50;68.50
59961;DHT22;55902;-37.980;-63.602;2023-04-19T13:31:10;24.60;67.60
59961;DHT22;55902;-37.980;-63.602;2023-04-19T13:33:37;24.70;68.20
59961;DHT22;55902;-37.980;-63.602;2023-04-19T13:36:05;24.70;68.00
59961;DHT22;55902;-37.980;-63.602;2023-04-19T13:38:32;24.90;67.00
59961;DHT22;55902;-37.980;-63.602;2023-04-19T13:41:01;25.00;67.70
59961;DHT22;55902;-37.980;-63.602;2023-04-19T13:43:29;25.00;62.00
59961;DHT22;55902;-37.980;-63.602;2023-04-19T13:45:56;25.00;64.90
59961;DHT22;55902;-37.980;-63.602;2023-04-19T13:48:23;24.90;65.30
59961;DHT22;55902;-37.980;-63.602;2023-04-19T13:50:58;24.80;68.30
59961;DHT22;55902;-37.980;-63.602;2023-04-19T13:53:26;24.90;65.40
59961;DHT22;55902;-37.980;-63.602;2023-04-19T13:55:55;25.00;63.80
59961;DHT22;55902;-37.980;-63.602;2023-04-19T13:58:24;25.10;62.10
59961;DHT22;55902;-37.980;-63.602;2023-04-19T14:00:51;25.20;64.90
59961;DHT22;55902;-37.980;-63.602;2023-04-19T14:03:20;25.40;66.10
59961;DHT22;55902;-37.980;-63.602;2023-04-19T14:05:47;25.70;65.40
59961;DHT22;55902;-37.980;-63.602;2023-04-19T14:08:15;26.00;66.00
59961;DHT22;55902;-37.980;-63.602;2023-04-19T14:10:42;26.10;64.10
59961;DHT22;55902;-37.980;-63.602;2023-04-19T14:13:09;26.20;62.00
59961;DHT22;55902;-37.980;-63.602;2023-04-19T14:15:37;26.20;63.90
59961;DHT22;55902;-37.980;-63.602;2023-04-19T14:18:04;26.30;62.30
59961;DHT22;55902;-37.980;-63.602;2023-04-19T14:20:31;26.30;63.80
59961;DHT22;55902;-37.980;-63.602;2023-04-19T14:22:58;26.50;62.20
59961;DHT22;55902;-37.980;-63.602;2023-04-19T14:25:26;26.50;60.90
59961;DHT22;55902;-37.980;-63.602;2023-04-19T14:27:53;26.50;60.90
59961;DHT22;55902;-37.980;-63.602;2023-04-19T14:30:20;26.50;61.60
59961;DHT22;55902;-37.980;-63.602;2023-04-19T14:32:47;26.60;63.50
59961;DHT22;55902;-37.980;-63.602;2023-04-19T14:35:14;26.80;62.80
59961;DHT22;55902;-37.980;-63.602;2023-04-19T14:37:41;27.00;61.00
59961;DHT22;55902;-37.980;-63.602;2023-04-19T14:40:08;27.10;61.20
59961;DHT22;55902;-37.980;-63.602;2023-04-19T14:42:36;27.10;58.90
59961;DHT22;55902;-37.980;-63.602;2023-04-19T14:45:07;27.00;58.40
59961;DHT22;55902;-37.980;-63.602;2023-04-19T14:47:37;26.90;57.70
59961;DHT22;55902;-37.980;-63.602;2023-04-19T14:50:04;27.00;59.30
59961;DHT22;55902;-37.980;-63.602;2023-04-19T14:52:31;27.20;59.80
59961;DHT22;55902;-37.980;-63.602;2023-04-19T14:54:58;27.40;61.00
59961;DHT22;55902;-37.980;-63.602;2023-04-19T14:57:29;27.60;58.60
59961;DHT22;55902;-37.980;-63.602;2023-04-19T14:59:57;27.90;59.40
59961;DHT22;55902;-37.980;-63.602;2023-04-19T15:02:24;28.00;56.60
59961;DHT22;55902;-37.980;-63.602;2023-04-19T15:04:51;28.10;57.30
59961;DHT22;55902;-37.980;-63.602;2023-04-19T15:07:19;28.30;58.40
59961;DHT22;55902;-37.980;-63.602;2023-04-19T15:09:46;28.50;58.50
59961;DHT22;55902;-37.980;-63.602;2023-04-19T15:12:13;28.70;58.20
59961;DHT22;55902;-37.980;-63.602;2023-04-19T15:14:40;28.80;58.60
59961;DHT22;55902;-37.980;-63.602;2023-04-19T15:17:08;29.00;56.90
59961;DHT22;55902;-37.980;-63.602;2023-04-19T15:19:38;29.00;55.50
59961;DHT22;55902;-37.980;-63.602;2023-04-19T15:22:05;29.00;54.90
59961;DHT22;55902;-37.980;-63.602;2023-04-19T15:24:36;28.90;55.50
59961;DHT22;55902;-37.980;-63.602;2023-04-19T15:27:03;29.00;54.70
59961;DHT22;55902;-37.980;-63.602;2023-04-19T15:29:44;29.10;57.10
59961;DHT22;55902;-37.980;-63.602;2023-04-19T15:32:14;29.40;56.70
59961;DHT22;55902;-37.980;-63.602;2023-04-19T15:34:41;29.70;57.40
59961;DHT22;55902;-37.980;-63.602;2023-04-19T15:37:08;30.10;57.00
59961;DHT22;55902;-37.980;-63.602;2023-04-19T15:39:35;30.20;54.80
59961;DHT22;55902;-37.980;-63.602;2023-04-19T15:42:04;30.30;54.50
59961;DHT22;55902;-37.980;-63.602;2023-04-19T15:44:31;30.30;54.90
59961;DHT22;55902;-37.980;-63.602;2023-04-19T15:46:58;30.30;51.00